Time;durP1;ratioP1;P1;durP2;ratioP2;P2;SDS_P1;SDS_P2;PMS_P1;PMS_P2;Temp;Humidity;BMP_temperature;BMP_pressure;BME280_temperature;BME280_humidity;BME280_pressure;Samples;Min_cycle;Max_cycle;Signal;HPM_P1;HPM_P2
2021/12/16 00:02:00;;;;;;;125.10;60.20;;;;;;;3.95;87.92;99991.80;105022;1325;22934;-75
2021/12/16 00:09:51;;;;;;;122.90;60.10;;;;;;;3.94;87.96;100000.83;105047;1325;23511;-75
2021/12/16 00:31:52;;;;;;;126.80;58.90;;;;;;;3.98;88.12;99976.96;105340;1321;25093;-77
2021/12/16 00:34:22;;;;;;;114.20;58.40;;;;;;;4.01;87.62;99981.04;105278;1322;22621;-76
2021/12/16 00:36:51;;;;;;;114.70;55.30;;;;;;;4.02;87.87;99985.17;105290;1321;22732;-76
2021/12/16 00:39:24;;;;;;;114.20;54.80;;;;;;;4.02;87.92;99987.40;105613;1322;22649;-76
2021/12/16 00:41:58;;;;;;;121.20;56.50;;;;;;;4.02;88.22;99990.86;105246;1322;24308;-76
2021/12/16 00:45:01;;;;;;;112.40;52.50;;;;;;;4.01;88.03;99991.39;105217;1317;22618;-76
2021/12/16 00:56:01;;;;;;;109.60;54.50;;;;;;;4.09;87.85;99995.73;105212;1322;22827;-75
2021/12/16 00:58:39;;;;;;;104.30;52.40;;;;;;;4.06;87.99;99994.57;105202;1322;25427;-75
2021/12/16 01:01:18;;;;;;;109.00;52.10;;;;;;;4.05;87.76;99994.75;105207;1322;22698;-75
2021/12/16 01:06:43;;;;;;;102.70;52.40;;;;;;;4.06;87.77;99997.31;105273;1321;23214;-75
2021/12/16 01:10:02;;;;;;;113.90;51.90;;;;;;;4.07;87.77;99991.61;105240;1322;22628;-75
2021/12/16 01:34:56;;;;;;;84.70;43.80;;;;;;;4.07;88.15;99975.94;105252;1321;22652;-76
2021/12/16 01:40:27;;;;;;;88.70;44.10;;;;;;;4.11;87.78;99974.66;105352;1321;22675;-76
2021/12/16 01:51:16;;;;;;;84.60;42.80;;;;;;;4.08;88.20;99966.08;105258;1322;22671;-76
2021/12/16 01:58:42;;;;;;;82.60;43.30;;;;;;;4.12;87.87;99965.85;105217;1320;23400;-76
2021/12/16 02:01:20;;;;;;;84.50;42.90;;;;;;;4.12;87.61;99960.67;105281;1322;22605;-76
2021/12/16 02:04:02;;;;;;;87.00;43.00;;;;;;;4.08;88.11;99963.50;105252;1322;22582;-76
2021/12/16 02:09:08;;;;;;;91.70;45.50;;;;;;;4.05;87.94;99955.63;105239;1322;22960;-76
2021/12/16 02:12:01;;;;;;;89.90;46.10;;;;;;;4.07;87.60;99952.83;105276;1322;22589;-76
2021/12/16 02:30:00;;;;;;;87.70;44.80;;;;;;;4.07;87.91;99946.80;104983;1328;22655;-76
2021/12/16 02:32:49;;;;;;;73.50;38.90;;;;;;;4.10;88.12;99945.21;104959;1322;22605;-76
2021/12/16 02:37:01;;;;;;;70.10;38.30;;;;;;;4.08;88.35;99936.62;105215;1322;22712;-76
2021/12/16 02:39:31;;;;;;;76.00;40.20;;;;;;;4.06;87.99;99939.22;105207;1322;22640;-76
2021/12/16 02:42:07;;;;;;;80.30;41.70;;;;;;;4.05;87.80;99940.45;105231;1323;22596;-76
2021/12/16 02:49:52;;;;;;;68.60;37.30;;;;;;;4.09;88.14;99936.25;105186;1322;23189;-76
2021/12/16 02:52:23;;;;;;;71.00;37.40;;;;;;;4.08;88.13;99933.16;105208;1322;23103;-75
2021/12/16 02:54:51;;;;;;;76.20;37.50;;;;;;;4.06;88.23;99931.46;105254;1322;22778;-75
2021/12/16 02:57:19;;;;;;;70.50;37.60;;;;;;;4.07;88.29;99930.25;105228;1320;23406;-76
2021/12/16 02:59:49;;;;;;;70.90;38.20;;;;;;;4.12;88.28;99929.45;105202;1322;22619;-75
2021/12/16 03:02:17;;;;;;;70.20;37.60;;;;;;;4.16;87.98;99931.30;105231;1322;25583;-75
2021/12/16 03:04:48;;;;;;;62.00;34.00;;;;;;;4.17;88.21;99928.00;105366;1320;22582;-75
2021/12/16 03:07:18;;;;;;;70.90;35.90;;;;;;;4.15;88.49;99933.03;105226;1322;22694;-76
2021/12/16 03:12:49;;;;;;;65.20;34.60;;;;;;;4.13;88.23;99930.64;105263;1322;22601;-75
2021/12/16 03:15:36;;;;;;;67.00;34.70;;;;;;;4.20;88.12;99937.27;105221;1322;25384;-76
2021/12/16 03:18:19;;;;;;;67.60;35.30;;;;;;;4.21;87.99;99939.80;105241;1322;25323;-75
2021/12/16 03:20:51;;;;;;;67.20;34.40;;;;;;;4.26;88.03;99941.63;105255;1322;25562;-73
2021/12/16 03:26:30;;;;;;;65.00;36.60;;;;;;;4.23;88.15;99941.68;105210;1322;22623;-76
2021/12/16 03:39:52;;;;;;;65.30;33.90;;;;;;;4.32;88.30;99952.71;105274;1321;22674;-76
2021/12/16 03:42:37;;;;;;;65.70;35.90;;;;;;;4.31;88.07;99950.50;105360;1322;25358;-76
2021/12/16 03:46:25;;;;;;;66.40;36.10;;;;;;;4.30;87.90;99953.45;105300;1322;22555;-76
2021/12/16 03:48:09;;;;;;;64.80;33.30;;;;;;;4.34;87.73;99953.02;105278;1321;24464;-76
2021/12/16 03:50:36;;;;;;;58.60;33.20;;;;;;;4.35;87.88;99954.91;105330;1322;22705;-76
2021/12/16 03:53:06;;;;;;;58.90;34.00;;;;;;;4.33;87.72;99957.17;105352;1322;22623;-76
2021/12/16 03:55:33;;;;;;;58.10;33.40;;;;;;;4.32;88.08;99957.54;105318;1322;22618;-76
2021/12/16 03:58:00;;;;;;;61.20;33.00;;;;;;;4.33;88.07;99957.36;105313;1321;22750;-76
2021/12/16 04:00:34;;;;;;;57.70;32.30;;;;;;;4.34;88.14;99951.98;105319;1320;22650;-76
2021/12/16 04:03:02;;;;;;;63.10;34.00;;;;;;;4.37;87.85;99951.93;105319;1322;22577;-76
2021/12/16 04:05:29;;;;;;;54.20;32.40;;;;;;;4.39;87.83;99949.29;105380;1320;24515;-75
2021/12/16 04:07:56;;;;;;;59.20;33.20;;;;;;;4.41;87.94;99954.27;105304;1321;22664;-75
2021/12/16 04:10:34;;;;;;;62.40;33.50;;;;;;;4.39;87.86;99960.00;105353;1322;22606;-76
2021/12/16 04:13:05;;;;;;;60.90;33.20;;;;;;;4.36;87.93;99961.27;105275;1320;25303;-76
2021/12/16 04:15:33;;;;;;;58.30;33.10;;;;;;;4.34;87.76;99962.16;105329;1322;25476;-76
2021/12/16 04:18:01;;;;;;;59.50;34.10;;;;;;;4.37;87.89;99964.02;105346;1322;25412;-76
2021/12/16 04:20:28;;;;;;;54.40;31.00;;;;;;;4.38;87.71;99963.48;105316;1321;22699;-76
2021/12/16 04:22:57;;;;;;;52.70;30.50;;;;;;;4.37;87.68;99963.16;105314;1322;22589;-76
2021/12/16 04:25:30;;;;;;;49.60;30.20;;;;;;;4.33;87.98;99964.94;105316;1322;24424;-76
2021/12/16 04:28:00;;;;;;;51.80;29.90;;;;;;;4.29;87.86;99964.33;105308;1322;25419;-76
2021/12/16 04:30:30;;;;;;;54.10;31.10;;;;;;;4.27;87.83;99963.34;105333;1321;22599;-76
2021/12/16 04:32:58;;;;;;;56.10;30.60;;;;;;;4.31;87.75;99963.59;105342;1321;22567;-75
2021/12/16 04:35:25;;;;;;;50.70;29.50;;;;;;;4.32;87.75;99962.37;105331;1319;22653;-76
2021/12/16 04:37:53;;;;;;;53.40;29.80;;;;;;;4.31;87.87;99964.96;105296;1321;22628;-76
2021/12/16 04:40:20;;;;;;;52.40;28.90;;;;;;;4.29;87.89;99964.00;105354;1316;22599;-76
2021/12/16 04:42:49;;;;;;;54.50;30.00;;;;;;;4.25;87.83;99964.23;105332;1321;24374;-76
2021/12/16 04:45:19;;;;;;;51.60;28.60;;;;;;;4.23;87.82;99961.85;105388;1320;22605;-76
2021/12/16 04:47:48;;;;;;;51.40;29.50;;;;;;;4.25;87.72;99959.91;105334;1321;22726;-76
2021/12/16 04:50:16;;;;;;;49.80;28.50;;;;;;;4.26;87.71;99958.00;105313;1321;22728;-76
2021/12/16 04:52:45;;;;;;;56.90;28.50;;;;;;;4.26;87.81;99955.60;105320;1321;22621;-76
2021/12/16 04:55:14;;;;;;;48.50;27.80;;;;;;;4.23;88.14;99957.89;105311;1321;22589;-76
2021/12/16 04:57:41;;;;;;;50.00;28.80;;;;;;;4.21;87.88;99960.15;105304;1321;22581;-76
2021/12/16 05:00:12;;;;;;;49.50;27.50;;;;;;;4.20;87.66;99959.33;105294;1320;22635;-77
2021/12/16 05:02:40;;;;;;;55.90;28.90;;;;;;;4.22;87.76;99959.96;105285;1322;22649;-76
2021/12/16 05:05:09;;;;;;;47.80;27.40;;;;;;;4.23;87.84;99964.27;105423;1321;22713;-76
2021/12/16 05:07:36;;;;;;;42.80;27.40;;;;;;;4.22;87.65;99963.42;105331;1322;22678;-76
2021/12/16 05:10:06;;;;;;;55.30;28.20;;;;;;;4.22;87.96;99965.48;105524;1321;22614;-76
2021/12/16 05:12:38;;;;;;;49.00;29.10;;;;;;;4.23;88.10;99962.02;105295;1321;25584;-76
2021/12/16 05:15:10;;;;;;;51.20;29.70;;;;;;;4.25;87.98;99959.05;105708;1321;22602;-76
2021/12/16 05:17:48;;;;;;;59.00;29.90;;;;;;;4.31;87.56;99962.90;105375;1321;22580;-75
2021/12/16 05:20:23;;;;;;;44.20;26.90;;;;;;;4.35;87.87;99966.63;105332;1321;24213;-75
2021/12/16 05:26:14;;;;;;;54.80;29.10;;;;;;;4.30;87.87;99980.17;105345;1322;24257;-76
2021/12/16 05:28:49;;;;;;;51.90;29.30;;;;;;;4.27;87.87;99982.30;105352;1322;25369;-76
2021/12/16 05:31:17;;;;;;;52.50;30.20;;;;;;;4.26;87.55;99983.18;105309;1322;22603;-75
2021/12/16 05:33:45;;;;;;;55.30;29.90;;;;;;;4.29;87.51;99982.27;105374;1321;22705;-75
2021/12/16 05:36:12;;;;;;;47.40;27.40;;;;;;;4.30;87.57;99986.36;105299;1321;22623;-76
2021/12/16 05:38:39;;;;;;;47.70;27.40;;;;;;;4.30;87.43;99984.65;105280;1321;22658;-76
2021/12/16 05:41:09;;;;;;;45.50;27.20;;;;;;;4.27;87.49;99983.34;105215;1320;22639;-76
2021/12/16 05:43:37;;;;;;;47.40;27.00;;;;;;;4.24;87.84;99982.86;105238;1322;24692;-75
2021/12/16 05:46:07;;;;;;;48.80;27.00;;;;;;;4.24;87.42;99982.17;105250;1322;22689;-76
2021/12/16 05:48:38;;;;;;;52.40;30.70;;;;;;;4.29;87.46;99980.52;105267;1320;25288;-76
2021/12/16 05:51:12;;;;;;;45.60;27.30;;;;;;;4.32;87.14;99982.37;105226;1322;22663;-76
2021/12/16 05:53:42;;;;;;;52.40;29.10;;;;;;;4.32;87.25;99983.59;105490;1321;22728;-76
2021/12/16 05:56:09;;;;;;;49.10;29.00;;;;;;;4.29;87.28;99983.48;105496;1320;22720;-76
2021/12/16 05:58:37;;;;;;;50.50;28.20;;;;;;;4.25;87.25;99986.83;105496;1322;22594;-76
2021/12/16 06:01:10;;;;;;;50.60;30.40;;;;;;;4.21;87.39;99985.84;105473;1320;22585;-76
2021/12/16 06:03:39;;;;;;;57.20;32.40;;;;;;;4.25;87.14;99983.03;105465;1321;24110;-76
2021/12/16 06:06:06;;;;;;;49.50;29.10;;;;;;;4.25;87.10;99978.02;105471;1322;25387;-76
2021/12/16 06:08:34;;;;;;;50.50;29.20;;;;;;;4.21;86.96;99983.79;105480;1319;22589;-75
2021/12/16 06:11:18;;;;;;;51.10;30.30;;;;;;;4.16;87.42;99982.33;105484;1321;22585;-76
2021/12/16 06:27:36;;;;;;;54.10;32.10;;;;;;;4.08;87.04;99991.61;105464;1321;22591;-76
2021/12/16 06:30:07;;;;;;;56.80;33.60;;;;;;;4.06;87.24;99990.77;105431;1319;22733;-75
2021/12/16 06:32:34;;;;;;;59.00;35.40;;;;;;;4.05;87.27;99985.45;105463;1322;22952;-76
2021/12/16 06:35:03;;;;;;;62.40;35.70;;;;;;;4.08;86.86;99984.53;105475;1322;25396;-75
2021/12/16 06:37:31;;;;;;;62.50;35.90;;;;;;;4.08;86.93;99985.92;105462;1319;25393;-76
2021/12/16 06:39:59;;;;;;;62.20;35.60;;;;;;;4.04;86.93;99988.21;105442;1322;22606;-76
2021/12/16 06:42:27;;;;;;;64.80;36.00;;;;;;;4.00;87.16;99991.05;105476;1322;22677;-75
2021/12/16 06:45:04;;;;;;;64.60;35.10;;;;;;;3.98;87.35;99992.98;105455;1322;22656;-76
2021/12/16 06:50:12;;;;;;;68.20;36.90;;;;;;;3.99;87.26;99989.01;105455;1319;22651;-76
2021/12/16 06:52:46;;;;;;;71.00;39.60;;;;;;;3.99;87.26;99990.04;105440;1319;25479;-76
2021/12/16 06:55:29;;;;;;;68.60;39.90;;;;;;;4.00;87.28;99991.75;105269;1322;22641;-74
2021/12/16 06:58:06;;;;;;;79.10;45.00;;;;;;;3.97;87.49;99990.23;105267;1322;22649;-75
2021/12/16 07:00:40;;;;;;;70.50;39.40;;;;;;;3.96;87.68;99990.94;105209;1319;22675;-77
2021/12/16 07:03:17;;;;;;;87.40;50.60;;;;;;;3.97;87.44;99988.16;105303;1322;26488;-78
2021/12/16 07:05:46;;;;;;;103.10;54.20;;;;;;;4.01;87.52;99993.46;104824;1322;22568;-77
2021/12/16 07:08:17;;;;;;;133.30;68.40;;;;;;;4.03;87.34;99990.14;105287;1323;23522;-78
2021/12/16 07:10:47;;;;;;;144.70;78.00;;;;;;;4.05;87.41;99988.55;105252;1321;23462;-78
2021/12/16 07:13:29;;;;;;;88.70;49.90;;;;;;;4.03;87.76;99982.20;105309;1322;22684;-76
2021/12/16 07:15:58;;;;;;;79.20;42.80;;;;;;;4.04;87.66;99982.19;105253;1316;23978;-75
2021/12/16 07:18:25;;;;;;;67.10;38.00;;;;;;;4.04;87.67;99981.67;105301;1322;22584;-75
2021/12/16 07:20:53;;;;;;;59.90;35.70;;;;;;;4.08;87.63;99980.05;105268;1322;22668;-77
2021/12/16 07:23:20;;;;;;;62.40;37.00;;;;;;;4.12;87.54;99977.21;105201;1322;22654;-75
2021/12/16 07:25:48;;;;;;;60.50;35.00;;;;;;;4.15;87.72;99976.47;105190;1322;22657;-76
2021/12/16 07:28:15;;;;;;;63.40;37.30;;;;;;;4.15;87.99;99977.16;105203;1320;22592;-75
2021/12/16 07:30:44;;;;;;;59.90;36.30;;;;;;;4.14;87.81;99979.25;105222;1322;22632;-75
2021/12/16 07:33:12;;;;;;;54.60;34.50;;;;;;;4.14;87.74;99978.20;105251;1316;22676;-78
2021/12/16 07:35:41;;;;;;;60.70;38.70;;;;;;;4.20;87.74;99979.15;105493;1322;22683;-77
2021/12/16 07:38:08;;;;;;;64.00;38.70;;;;;;;4.23;87.61;99980.64;105214;1322;23259;-76
2021/12/16 07:40:36;;;;;;;52.50;33.20;;;;;;;4.26;87.58;99981.64;105177;1322;22933;-75
2021/12/16 07:45:46;;;;;;;56.30;33.90;;;;;;;4.21;87.92;99994.30;105185;1322;22662;-75
2021/12/16 07:48:15;;;;;;;50.40;31.00;;;;;;;4.22;87.54;99997.23;105226;1322;22652;-76
2021/12/16 07:50:45;;;;;;;46.30;28.20;;;;;;;4.26;87.38;99991.64;105262;1322;22596;-76
2021/12/16 07:53:12;;;;;;;112.60;57.00;;;;;;;4.29;87.58;99985.05;105204;1322;22622;-76
2021/12/16 07:55:42;;;;;;;230.60;98.70;;;;;;;4.32;87.56;99981.16;105227;1322;24478;-76
2021/12/16 07:58:11;;;;;;;77.00;40.20;;;;;;;4.33;87.80;99981.85;105187;1322;25223;-76
2021/12/16 08:00:39;;;;;;;45.00;29.00;;;;;;;4.34;87.51;99985.45;105214;1322;22601;-76
2021/12/16 08:03:10;;;;;;;229.60;86.00;;;;;;;4.36;87.46;99988.52;105218;1322;22578;-76
2021/12/16 08:05:44;;;;;;;110.70;49.80;;;;;;;4.41;87.26;99985.66;105209;1322;22768;-77
2021/12/16 08:08:11;;;;;;;56.30;35.80;;;;;;;4.45;87.39;99987.66;105223;1322;22581;-76
2021/12/16 08:10:38;;;;;;;75.20;38.40;;;;;;;4.49;87.54;99982.05;105240;1322;22788;-75
2021/12/16 08:13:06;;;;;;;220.60;78.50;;;;;;;4.50;87.72;99982.73;105206;1322;22769;-76
2021/12/16 08:15:33;;;;;;;232.40;78.20;;;;;;;4.51;87.43;99976.33;105179;1322;22758;-76
2021/12/16 08:18:00;;;;;;;182.60;64.80;;;;;;;4.52;87.48;99977.85;105244;1320;22775;-76
2021/12/16 08:20:28;;;;;;;82.10;37.40;;;;;;;4.58;87.33;99978.09;105196;1322;25250;-76
2021/12/16 08:22:58;;;;;;;156.80;58.00;;;;;;;4.60;87.38;99984.25;105198;1322;22588;-76
2021/12/16 08:25:28;;;;;;;322.80;101.40;;;;;;;4.63;87.60;99985.77;105180;1322;23042;-76
2021/12/16 08:27:56;;;;;;;115.50;45.30;;;;;;;4.63;87.73;99984.39;105206;1322;22603;-76
2021/12/16 08:30:28;;;;;;;101.10;42.10;;;;;;;4.64;87.52;99983.34;105278;1322;22628;-75
2021/12/16 08:32:56;;;;;;;89.70;40.00;;;;;;;4.65;87.35;99984.52;105210;1322;22640;-75
2021/12/16 08:35:23;;;;;;;317.50;104.20;;;;;;;4.70;87.35;99986.48;105184;1322;22729;-75
2021/12/16 08:37:51;;;;;;;245.00;83.90;;;;;;;4.74;87.13;99986.23;105278;1319;22623;-73
2021/12/16 08:40:21;;;;;;;192.00;65.00;;;;;;;4.77;87.32;99986.49;105293;1321;22588;-76
2021/12/16 08:42:49;;;;;;;248.30;87.30;;;;;;;4.79;87.50;99983.70;105269;1320;22691;-75
2021/12/16 08:45:22;;;;;;;111.10;47.30;;;;;;;4.80;87.26;99987.66;105287;1321;22577;-75
2021/12/16 08:47:50;;;;;;;;;;;;;;;4.82;87.21;99991.40;105246;1322;22577;-75
2021/12/16 08:50:19;;;;;;;196.30;69.40;;;;;;;4.84;86.97;99985.14;105243;1321;22653;-76
2021/12/16 08:52:47;;;;;;;155.60;61.20;;;;;;;4.87;87.17;99989.05;105276;1322;22588;-74
2021/12/16 08:55:15;;;;;;;78.20;37.10;;;;;;;4.91;87.14;99989.33;105264;1322;22578;-74
2021/12/16 08:57:43;;;;;;;63.60;34.20;;;;;;;4.90;87.20;99990.39;105304;1322;22588;-75
2021/12/16 09:00:23;;;;;;;136.80;57.80;;;;;;;4.86;87.52;99988.55;105322;1322;22578;-74
2021/12/16 09:02:50;;;;;;;68.60;38.40;;;;;;;4.86;87.20;99993.73;105227;1322;22622;-75
2021/12/16 09:05:18;;;;;;;130.40;56.70;;;;;;;4.88;87.04;99992.49;105265;1317;22584;-76
2021/12/16 09:07:48;;;;;;;76.50;41.00;;;;;;;4.89;86.97;99993.34;105275;1322;24294;-75
2021/12/16 09:10:22;;;;;;;84.50;40.00;;;;;;;4.89;87.39;99992.30;105266;1321;25293;-75
2021/12/16 09:13:02;;;;;;;78.80;39.50;;;;;;;4.86;87.38;99988.89;105261;1322;25467;-76
2021/12/16 09:15:34;;;;;;;74.40;36.30;;;;;;;4.84;87.33;99992.05;105233;1322;22749;-75
2021/12/16 09:18:04;;;;;;;52.30;30.00;;;;;;;4.82;87.00;99997.13;105200;1322;22649;-75
2021/12/16 09:20:32;;;;;;;91.90;42.50;;;;;;;4.84;87.17;99993.61;105252;1321;25094;-76
2021/12/16 09:23:00;;;;;;;76.70;37.70;;;;;;;4.86;87.38;99993.21;105259;1322;22606;-76
2021/12/16 09:25:27;;;;;;;120.70;51.40;;;;;;;4.88;87.28;99990.23;105328;1320;22620;-77
2021/12/16 09:27:55;;;;;;;84.00;41.00;;;;;;;4.87;87.59;99986.80;105347;1321;23456;-77
2021/12/16 09:30:25;;;;;;;56.40;34.00;;;;;;;4.87;87.46;99985.78;105316;1321;22653;-77
2021/12/16 09:32:56;;;;;;;50.80;32.00;;;;;;;4.88;87.35;99988.86;105280;1320;25411;-77
2021/12/16 09:35:24;;;;;;;70.90;37.40;;;;;;;4.93;87.22;99982.38;105250;1319;23400;-75
2021/12/16 09:37:51;;;;;;;51.50;32.00;;;;;;;4.97;87.28;99979.37;105264;1321;22737;-76
2021/12/16 09:40:23;;;;;;;56.80;31.50;;;;;;;4.98;87.53;99974.17;105304;1317;22893;-76
2021/12/16 09:42:51;;;;;;;56.00;33.40;;;;;;;5.00;87.52;99978.45;105274;1321;22748;-76
2021/12/16 09:45:21;;;;;;;48.80;31.30;;;;;;;4.99;87.53;99982.27;105348;1319;22595;-76
2021/12/16 09:47:48;;;;;;;55.30;32.60;;;;;;;4.97;87.51;99986.95;105303;1318;26299;-75
2021/12/16 09:50:20;;;;;;;63.10;36.00;;;;;;;4.98;87.67;99983.84;105278;1319;22593;-78
2021/12/16 09:52:47;;;;;;;58.50;35.90;;;;;;;5.03;87.28;99986.48;105323;1316;26158;-79
2021/12/16 09:55:15;;;;;;;65.00;38.00;;;;;;;5.04;87.33;99983.52;105266;1321;22673;-77
2021/12/16 09:57:42;;;;;;;46.20;29.50;;;;;;;5.07;87.70;99986.41;105307;1321;25838;-82
2021/12/16 10:00:11;;;;;;;61.70;37.10;;;;;;;5.05;87.69;99983.00;105330;1321;22732;-77
2021/12/16 10:02:38;;;;;;;53.10;34.10;;;;;;;5.01;87.63;99980.86;105337;1316;24506;-77
2021/12/16 10:05:09;;;;;;;51.30;29.60;;;;;;;5.01;87.46;99976.36;105348;1321;22607;-77
2021/12/16 10:07:36;;;;;;;51.70;30.80;;;;;;;5.01;87.59;99977.73;105445;1320;25492;-78
2021/12/16 10:10:18;;;;;;;50.40;33.20;;;;;;;5.04;87.31;99975.92;105485;1321;22745;-77
2021/12/16 10:12:49;;;;;;;45.00;29.60;;;;;;;5.07;87.47;99977.77;105532;1322;22583;-77
2021/12/16 10:18:20;;;;;;;47.00;29.90;;;;;;;5.14;87.68;99972.09;105255;1322;22627;-77
2021/12/16 10:20:59;;;;;;;43.80;26.20;;;;;;;5.14;87.97;99974.16;105561;1320;22680;-78
2021/12/16 10:23:31;;;;;;;42.70;26.70;;;;;;;5.15;87.48;99972.41;105539;1322;22597;-79
2021/12/16 10:26:04;;;;;;;46.10;27.80;;;;;;;5.15;87.26;99970.69;105559;1322;22607;-78
2021/12/16 10:28:35;;;;;;;42.50;28.00;;;;;;;5.16;87.33;99973.27;105513;1321;22587;-79
2021/12/16 10:31:11;;;;;;;43.70;26.90;;;;;;;5.18;87.42;99969.41;105530;1321;24143;-77
2021/12/16 10:33:51;;;;;;;42.10;26.30;;;;;;;5.22;87.74;99973.98;105475;1321;24256;-78
2021/12/16 10:36:21;;;;;;;40.60;27.50;;;;;;;5.26;87.76;99970.09;105536;1322;24221;-77
2021/12/16 10:38:50;;;;;;;38.50;23.90;;;;;;;5.27;87.81;99964.19;105499;1322;22592;-76
2021/12/16 10:41:32;;;;;;;41.50;27.50;;;;;;;5.27;87.66;99954.86;105479;1320;22593;-78
2021/12/16 10:44:20;;;;;;;40.00;25.50;;;;;;;5.27;87.50;99951.92;105513;1321;22674;-77
2021/12/16 10:47:00;;;;;;;43.00;26.10;;;;;;;5.34;87.23;99951.43;105491;1317;22573;-78
2021/12/16 10:49:37;;;;;;;40.10;26.30;;;;;;;5.39;87.48;99949.92;105498;1322;22633;-77
2021/12/16 10:52:09;;;;;;;38.30;24.60;;;;;;;5.44;87.70;99953.27;105574;1319;22690;-78
2021/12/16 10:54:40;;;;;;;38.70;26.10;;;;;;;5.45;87.76;99952.20;105564;1321;22652;-78
2021/12/16 10:57:13;;;;;;;42.70;25.90;;;;;;;5.45;87.60;99950.48;105523;1320;25950;-78
2021/12/16 10:59:44;;;;;;;44.30;27.70;;;;;;;5.44;87.50;99952.42;105528;1322;22664;-78
2021/12/16 11:02:24;;;;;;;43.10;27.00;;;;;;;5.44;87.35;99954.49;105544;1322;24114;-79
2021/12/16 11:05:02;;;;;;;45.60;27.50;;;;;;;5.44;87.32;99954.30;105527;1322;22652;-78
2021/12/16 11:07:35;;;;;;;35.90;22.60;;;;;;;5.47;87.54;99951.29;105510;1322;22595;-76
2021/12/16 11:10:12;;;;;;;;;;;;;;;5.48;87.54;99947.64;105546;1322;22564;-77
2021/12/16 11:12:45;;;;;;;40.80;24.00;;;;;;;5.46;87.60;99952.36;105486;1320;22699;-78
2021/12/16 11:15:35;;;;;;;40.30;24.80;;;;;;;5.45;87.47;99946.69;105542;1322;22578;-77
2021/12/16 11:18:06;;;;;;;42.40;24.30;;;;;;;5.46;87.39;99948.02;105511;1322;22569;-78
2021/12/16 11:20:41;;;;;;;39.90;24.30;;;;;;;5.49;87.31;99947.78;105493;1320;22603;-79
2021/12/16 11:23:20;;;;;;;39.70;22.90;;;;;;;5.52;87.37;99950.67;105515;1323;22554;-78
2021/12/16 11:25:52;;;;;;;35.80;23.40;;;;;;;5.53;87.54;99955.32;105535;1322;22580;-78
2021/12/16 11:28:37;;;;;;;38.90;24.80;;;;;;;5.51;87.61;99956.21;105537;1322;22591;-79
2021/12/16 11:31:04;;;;;;;40.40;23.90;;;;;;;5.49;87.52;99953.30;105506;1322;22709;-77
2021/12/16 11:33:34;;;;;;;37.20;21.70;;;;;;;5.54;87.39;99945.77;105548;1322;22538;-80
2021/12/16 11:36:13;;;;;;;38.40;21.60;;;;;;;5.60;87.17;99936.98;105526;1323;22569;-77
2021/12/16 11:38:44;;;;;;;31.50;19.50;;;;;;;5.63;87.47;99944.34;105397;1319;22681;-77
2021/12/16 11:41:15;;;;;;;27.10;17.40;;;;;;;5.62;87.67;99947.30;105557;1321;25922;-78
2021/12/16 11:43:51;;;;;;;31.10;20.40;;;;;;;5.59;87.71;99949.98;105585;1320;22785;-77
2021/12/16 11:46:28;;;;;;;41.30;24.30;;;;;;;5.58;87.87;99941.70;105581;1322;22651;-77
2021/12/16 11:49:06;;;;;;;42.30;25.00;;;;;;;5.58;87.60;99935.65;105562;1320;25867;-78
2021/12/16 11:51:46;;;;;;;32.60;21.20;;;;;;;5.60;87.43;99931.45;105568;1322;22652;-77
2021/12/16 11:54:16;;;;;;;29.20;18.60;;;;;;;5.62;87.53;99932.45;105627;1321;24440;-78
2021/12/16 11:56:49;;;;;;;25.00;16.50;;;;;;;5.64;87.67;99936.89;105604;1319;22583;-79
2021/12/16 11:59:37;;;;;;;27.40;19.80;;;;;;;5.62;87.82;99936.94;105616;1321;22607;-78
2021/12/16 12:02:17;;;;;;;29.70;18.30;;;;;;;5.66;87.68;99942.20;105640;1321;22653;-78
2021/12/16 12:04:45;;;;;;;27.00;16.70;;;;;;;5.66;87.51;99947.54;105625;1322;22671;-78
2021/12/16 12:07:14;;;;;;;25.70;16.80;;;;;;;5.68;87.44;99943.70;105517;1322;22591;-79
2021/12/16 12:09:53;;;;;;;28.20;18.70;;;;;;;5.73;87.56;99946.51;105628;1322;22679;-78
2021/12/16 12:12:48;;;;;;;27.30;15.70;;;;;;;5.73;87.68;99944.45;105595;1316;22929;-77
2021/12/16 12:15:19;;;;;;;30.10;18.30;;;;;;;5.73;87.94;99947.23;105473;1322;22737;-80
2021/12/16 12:17:51;;;;;;;34.00;19.80;;;;;;;5.72;87.92;99943.95;105599;1321;23430;-79
2021/12/16 12:20:26;;;;;;;30.50;17.60;;;;;;;5.73;87.67;99939.61;105621;1321;22584;-77
2021/12/16 12:22:53;;;;;;;29.30;16.60;;;;;;;5.72;87.54;99938.62;105630;1319;22640;-78
2021/12/16 12:25:21;;;;;;;30.50;17.40;;;;;;;5.73;87.36;99933.92;105490;1320;23892;-78
2021/12/16 12:27:48;;;;;;;28.80;17.10;;;;;;;5.74;87.48;99942.69;105629;1321;24411;-78
2021/12/16 12:30:17;;;;;;;25.30;15.70;;;;;;;5.74;87.55;99938.71;105606;1321;22638;-78
2021/12/16 12:32:47;;;;;;;28.10;16.20;;;;;;;5.77;87.74;99939.69;105614;1321;22665;-77
2021/12/16 12:35:20;;;;;;;29.90;17.40;;;;;;;5.75;87.71;99946.64;105618;1319;22679;-77
2021/12/16 12:37:51;;;;;;;30.40;17.60;;;;;;;5.73;87.64;99951.88;105648;1322;22625;-78
2021/12/16 12:40:26;;;;;;;32.70;18.30;;;;;;;5.71;87.44;99952.48;105511;1322;22803;-77
2021/12/16 12:42:56;;;;;;;28.30;17.40;;;;;;;5.72;87.44;99950.18;105505;1322;22653;-79
2021/12/16 12:45:29;;;;;;;30.80;17.70;;;;;;;5.72;87.60;99953.30;105492;1322;25957;-78
2021/12/16 12:47:59;;;;;;;38.30;20.90;;;;;;;5.70;87.62;99954.04;105531;1322;22598;-80
2021/12/16 12:50:40;;;;;;;39.10;22.30;;;;;;;5.69;87.76;99955.45;105520;1322;22681;-81
2021/12/16 12:53:19;;;;;;;34.90;20.30;;;;;;;5.64;87.76;99954.69;105511;1323;24103;-82
2021/12/16 12:55:49;;;;;;;35.60;20.90;;;;;;;5.62;87.61;99955.77;105497;1322;22584;-84
2021/12/16 12:58:22;;;;;;;35.20;19.50;;;;;;;5.65;87.54;99961.57;105350;1322;24030;-84
2021/12/16 13:00:54;;;;;;;34.30;20.50;;;;;;;5.66;87.54;99958.95;105752;1322;22610;-78
2021/12/16 13:03:28;;;;;;;33.30;20.00;;;;;;;5.67;87.89;99949.94;105348;1322;23247;-78
2021/12/16 13:06:00;;;;;;;37.60;23.50;;;;;;;5.65;88.12;99948.10;105345;1322;22564;-78
2021/12/16 13:08:31;;;;;;;40.90;25.00;;;;;;;5.60;88.23;99952.88;105280;1322;24404;-77
2021/12/16 13:11:24;;;;;;;38.90;22.50;;;;;;;5.60;87.99;99954.79;105329;1322;22580;-76
2021/12/16 13:14:29;;;;;;;40.90;24.30;;;;;;;5.61;87.90;99952.52;105293;1322;23547;-79
2021/12/16 13:28:16;;;;;;;30.20;17.90;;;;;;;5.54;87.84;99932.83;105324;1321;22593;-78
2021/12/16 13:30:59;;;;;;;32.70;19.60;;;;;;;5.55;87.86;99927.09;105340;1320;22652;-76
2021/12/16 13:33:40;;;;;;;40.00;20.60;;;;;;;5.58;87.94;99923.38;105326;1322;23966;-77
2021/12/16 13:36:17;;;;;;;35.30;18.90;;;;;;;5.56;88.22;99914.25;105306;1322;23485;-77
2021/12/16 13:38:49;;;;;;;34.80;21.50;;;;;;;5.56;88.23;99911.01;105258;1320;22601;-76
2021/12/16 13:41:23;;;;;;;37.00;21.40;;;;;;;5.53;88.41;99918.50;105320;1322;22678;-77
2021/12/16 13:43:55;;;;;;;36.80;22.80;;;;;;;5.52;88.24;99931.15;105412;1321;22745;-79
2021/12/16 13:46:39;;;;;;;38.90;22.70;;;;;;;5.51;88.23;99938.94;105633;1321;22802;-79
2021/12/16 14:03:46;;;;;;;33.40;20.80;;;;;;;5.52;88.37;99950.84;105630;1319;24121;-77
2021/12/16 14:06:22;;;;;;;35.30;21.90;;;;;;;5.56;88.20;99944.52;105572;1321;22572;-78
2021/12/16 14:08:52;;;;;;;40.20;22.80;;;;;;;5.56;88.26;99948.83;105409;1321;22589;-80
2021/12/16 14:14:22;;;;;;;47.90;28.10;;;;;;;5.56;88.51;99953.67;105409;1321;22526;-77
2021/12/16 14:17:14;;;;;;;47.10;27.70;;;;;;;5.53;88.28;99963.26;105362;1321;22745;-78
2021/12/16 14:39:49;;;;;;;32.70;19.70;;;;;;;5.49;88.18;99985.81;105405;1322;22588;-78
2021/12/16 14:47:12;;;;;;;30.70;19.20;;;;;;;5.47;88.70;99984.64;105364;1321;22607;-81
2021/12/16 14:49:51;;;;;;;28.30;17.90;;;;;;;5.45;88.81;99986.95;105301;1322;22583;-79
2021/12/16 14:52:20;;;;;;;24.80;14.50;;;;;;;5.46;88.50;99981.56;105378;1321;22647;-78
2021/12/16 14:54:57;;;;;;;25.90;16.00;;;;;;;5.47;88.41;99983.25;105385;1321;22532;-79
2021/12/16 14:57:38;;;;;;;24.30;14.30;;;;;;;5.47;88.54;99980.14;105365;1320;25860;-79